Airfield :
LOGIN :

Register | Disclaimer

   EN    FR    IT 

 










Legend :    VFR   Marginal VFR   IFR   Intensive IFR   Very Intensive IFR
Visi :
Ceiling :
>= 8 km
>= 3000ft
5 to 8 km
1000 to 3000 ft
1500m to 5 km
500 to 1000 ft
800 to 1500m
200 to 500 ft
< 800m
< 200 ft
Symbols :   Thunderstorms  Fog  Heavy snow  Heavy precipitations  Wind > 20 kt
SIGMETs :     Misc.  Thunderstorms  Icing  Turbulence  Mountain Waves  Volcanic Ashes







- Airport Elevation : 1300 ft
- IATA code : LIG
- Download approach charts


LFBL - Limoges

CURRENT METAR :
  • 162300Z AUTO 12007KT CAVOK 09/M07 Q1023 NOSIG

EXPIRED METARs :
  • 162230Z AUTO 13007KT CAVOK 10/M07 Q1023 NOSIG
  • 162200Z AUTO 13007KT CAVOK 10/M06 Q1023 NOSIG
  • 162130Z AUTO 13005KT CAVOK 11/M05 Q1024 NOSIG
  • 162100Z AUTO 12006KT CAVOK 11/M05 Q1024 NOSIG
  • 162030Z AUTO 10005KT CAVOK 11/M06 Q1024 NOSIG

TAF TAF LFBL
Valid from the 16 at 18:00 until the 17 at 18:00 UTC


161700Z 1618/1718 14008KT CAVOK
TEMPO 1618/1622 VRB03KT
ATIS : +33 5 55 48 40 37
No reported NOTAMs for that airfield.
2 SIGMETs reported for the Bordeaux FIR (LFBB) :
 
Severe mountain waves
LFBB SIGMET 2 VALID 170100/170500 LFPW
LFBB BORDEAUX FIR/UIR SEV MTW FCST WI N4230 E00045 - N4300 W00145 - N4330 W00145 - N4300 E00045 - N4230 E00045 SFC/FL200 STNR WKN=
Severe turbulence
LFBB SIGMET 1 VALID 162110/170100 LFPW
LFBB BORDEAUX FIR/UIR SEV TURB FCST WI N4230 E00045 - N4300 W00145 - N4330 W00145 - N4300 E00045 - N4230 E00045 SFC/FL100 STNR INTSF=



MET'MAP, your aeronautical weather chart ! - Copyright ORBIFLY December 2007 - Disclaimer

ORBIFLY MET'MAP TEAM :

Programming & Development : Alexandra Zaïnal
Concept & Development : Baudouin d'Aumeries
Co-Development & Prog : Marc-Olivier Méhu
Technical & hardware support : Manuel Goepfert

Contact : metmap@orbifly.com




SOURCES & CREDITS :

   NOAA